Edgerton, WY (82635)

9:03 AM MST on February 20, 2017 (GMT -0700)
Natrona County International | | Change Station
Active Advisory: High Wind Warning

Elev 5348 ft 42.91 °N, 106.46 °W | Updated 10 minutes ago

Clear
Clear
41 °F
Feels Like 31 °F
N
23
Wind Variable Wind from SSW
Gusts 28 mph

Today
High -- | Low -- °F
--% Chance of Precip.
Yesterday
High -- | Low -- °F
Precip. -- in
Pressure 29.93 in
Visibility 10.0 miles
Clouds Clear
Windchill 31 °F
Dew Point 20 °F
Humidity 43%
Rainfall 0.00 in
Snow Depth Not available.
6:55 AM 5:42 PM
Waning Crescent, 33% visible
METAR KCPR 201553Z 21020G24KT 10SM CLR 05/M07 A2995 RMK AO2 SLP135 T00501067
Pressure 29.93 in
Visibility 10.0 miles
Clouds Clear
Windchill 31 °F
Dew Point 20 °F
Humidity 43%
Rainfall 0.00 in
Snow Depth Not available.
6:55 AM 5:42 PM
Waning Crescent, 33% visible
METAR KCPR 201553Z 21020G24KT 10SM CLR 05/M07 A2995 RMK AO2 SLP135 T00501067

Get Your Daily Forecast Email!

Thanks for signing up!

Be on the lookout for a verification email in your inbox.

You'll start receiving the daily forecast at 8 AM.

×

10-Day Weather Forecast

Almanac

Astronomy

Feb. 20, 2017 Rise Set
Actual Time
Civil Twilight
Nautical Twilight
Astronomical Twilight
Moon
Length of Visible Light
Length of Day
Tomorrow will be .
, % of the Moon is Illuminated

Today's Extremes

State Highs State Lows

Community

WunderPhotos

Upload Photos

1,962,540 photos uploaded!

WunderBlog® & News

Nearby

Air Quality

  Air Quality AQ Index Pollutant
Not available.

Snow Depth

Station Depth Elevation

Earthquake Activity

City Distance Mag. Time & Date
Minimum magnitude displayed is 2.5.

Coastal Water Temperatures

Place Temperature

Stations

Nearby Weather Stations

Station Location Temp. Windchill Dew Point Humidity Wind Precip. Elev Updated Type
                   

Watches & Warnings

High Wind Warning
Issued: 2:48 AM MST Feb. 20, 2017 – National Weather Service

... High Wind Warning in effect from 5 PM this afternoon to 11 PM
MST Tuesday...

The National Weather Service in Riverton has issued a High Wind
Warning, which is in effect from 5 PM this afternoon to 11 PM MST
Tuesday. The high wind watch is no longer in effect.

* Timing... high winds are expected to develop around 5 PM MST
Monday afternoon continuing through Tuesday night.

* Winds... west wind 35 to 45 mph gusting to 65 mph, locally higher
up to 75 mph on outer drive on the south side of Casper.

* Impacts... strong cross winds may produce an extreme blow over
threat for trucks pulling light weight and high profile
trailers.

Precautionary/preparedness actions...

A High Wind Warning means a hazardous high wind event is expected
or occurring. Sustained wind speeds of at least 40 mph or gusts
of 58 mph or more can lead to property damage.